Time;durP1;ratioP1;P1;durP2;ratioP2;P2;SDS_P1;SDS_P2;PMS_P1;PMS_P2;Temp;Humidity;BMP_temperature;BMP_pressure;BME280_temperature;BME280_humidity;BME280_pressure;Samples;Min_cycle;Max_cycle;Signal;HPM_P1;HPM_P2
2023/12/09 00:00:26;;;;;;;1.52;1.42;;;7.60;99.90;;;;;;5059120;28;20375;-84
2023/12/09 00:02:51;;;;;;;1.15;1.05;;;7.60;99.90;;;;;;5057585;28;20033;-84
2023/12/09 00:05:17;;;;;;;9.88;2.95;;;7.60;99.90;;;;;;5042058;28;20056;-84
2023/12/09 00:07:42;;;;;;;4.18;1.88;;;7.70;99.90;;;;;;5059569;28;20124;-84
2023/12/09 00:10:09;;;;;;;2.78;2.15;;;7.60;99.90;;;;;;5041148;28;20482;-84
2023/12/09 00:12:34;;;;;;;1.70;1.50;;;7.60;99.90;;;;;;5038933;28;20050;-85
2023/12/09 00:15:00;;;;;;;16.65;3.75;;;7.60;99.90;;;;;;5042749;28;20096;-84
2023/12/09 00:17:26;;;;;;;13.13;5.60;;;7.70;99.90;;;;;;5021146;28;20041;-84
2023/12/09 00:19:51;;;;;;;2.60;2.00;;;7.70;99.90;;;;;;5045779;28;20044;-84
2023/12/09 00:22:17;;;;;;;3.70;3.40;;;8.00;99.90;;;;;;5044855;28;20072;-84
2023/12/09 00:24:42;;;;;;;3.45;2.25;;;7.70;99.90;;;;;;5045700;28;20069;-84
2023/12/09 00:27:08;;;;;;;3.15;2.38;;;7.70;99.90;;;;;;5060514;28;20052;-84
2023/12/09 00:29:33;;;;;;;6.25;4.10;;;7.70;99.90;;;;;;5036611;28;20514;-84
2023/12/09 00:31:59;;;;;;;1.17;1.05;;;7.70;99.90;;;;;;5037155;28;20118;-84
2023/12/09 00:34:24;;;;;;;1.42;1.33;;;7.70;99.90;;;;;;5056779;28;20049;-85
2023/12/09 00:36:50;;;;;;;1.73;1.38;;;7.70;99.90;;;;;;5041139;28;20060;-85
2023/12/09 00:39:16;;;;;;;18.35;2.53;;;7.70;99.90;;;;;;5060044;28;20041;-84
2023/12/09 00:41:41;;;;;;;5.85;2.92;;;7.70;99.90;;;;;;5060167;28;20487;-84
2023/12/09 00:44:07;;;;;;;5.22;2.88;;;7.70;99.90;;;;;;5059623;28;20086;-85
2023/12/09 00:46:32;;;;;;;15.40;4.78;;;7.80;99.90;;;;;;5059651;28;20045;-84
2023/12/09 00:48:58;;;;;;;1.27;0.77;;;7.70;99.90;;;;;;5059884;28;20049;-84
2023/12/09 00:51:24;;;;;;;3.50;3.17;;;7.70;99.90;;;;;;5059823;28;20037;-84
2023/12/09 00:53:49;;;;;;;2.60;1.55;;;7.70;99.90;;;;;;5060049;28;20041;-85
2023/12/09 00:56:15;;;;;;;3.65;2.15;;;7.80;99.90;;;;;;5060763;28;20045;-84
2023/12/09 00:58:40;;;;;;;2.53;2.33;;;8.10;99.90;;;;;;5059835;28;20046;-84
2023/12/09 01:01:06;;;;;;;1.02;1.00;;;8.50;99.90;;;;;;5042487;28;20095;-84
2023/12/09 01:03:31;;;;;;;0.75;0.75;;;7.80;99.90;;;;;;5059873;28;20048;-84
2023/12/09 01:05:57;;;;;;;5.95;2.70;;;7.80;99.90;;;;;;5059159;28;20045;-85
2023/12/09 01:08:23;;;;;;;7.25;3.33;;;7.70;99.90;;;;;;5059522;28;20724;-85
2023/12/09 01:10:49;;;;;;;0.70;0.70;;;7.70;99.90;;;;;;5025512;28;20072;-84
2023/12/09 01:13:15;;;;;;;1.83;1.25;;;7.80;99.90;;;;;;5059936;28;20052;-84
2023/12/09 01:15:40;;;;;;;6.10;1.08;;;7.80;99.90;;;;;;5041611;28;20048;-84
2023/12/09 01:18:06;;;;;;;3.55;2.75;;;7.80;99.90;;;;;;5059624;28;20037;-84
2023/12/09 01:20:31;;;;;;;3.85;2.08;;;7.80;99.90;;;;;;5059122;28;20032;-84
2023/12/09 01:22:57;;;;;;;1.45;1.27;;;7.90;99.90;;;;;;5059248;28;20395;-85
2023/12/09 01:25:23;;;;;;;2.40;1.88;;;7.90;99.90;;;;;;5058851;28;20045;-85
2023/12/09 01:27:48;;;;;;;2.25;2.03;;;7.90;99.90;;;;;;5041424;28;20514;-85
2023/12/09 01:30:14;;;;;;;6.75;2.20;;;7.80;99.90;;;;;;5059548;28;20037;-85
2023/12/09 01:32:39;;;;;;;3.55;3.15;;;7.80;99.90;;;;;;5059365;28;20112;-84
2023/12/09 01:35:05;;;;;;;1.35;1.25;;;9.00;99.90;;;;;;5059080;28;20434;-84
2023/12/09 01:37:31;;;;;;;2.08;1.27;;;7.80;99.90;;;;;;5059461;28;20039;-84
2023/12/09 01:39:56;;;;;;;5.05;2.47;;;7.80;99.90;;;;;;5059174;28;20044;-84
2023/12/09 01:42:22;;;;;;;2.00;1.73;;;7.80;99.90;;;;;;5059184;28;20053;-84
2023/12/09 01:44:47;;;;;;;6.90;3.20;;;7.80;99.90;;;;;;5041038;28;20503;-84
2023/12/09 01:47:13;;;;;;;5.57;3.20;;;7.90;99.90;;;;;;5058861;28;20049;-84
2023/12/09 01:49:39;;;;;;;0.25;0.25;;;7.90;99.90;;;;;;5061088;28;20045;-84
2023/12/09 01:52:05;;;;;;;2.72;1.85;;;7.90;99.90;;;;;;5063127;28;20048;-84
2023/12/09 01:54:31;;;;;;;4.35;1.88;;;7.90;99.90;;;;;;5062786;28;20044;-85
2023/12/09 01:56:57;;;;;;;5.38;2.03;;;7.90;99.90;;;;;;5062456;28;20560;-84
2023/12/09 01:59:23;;;;;;;0.82;0.82;;;8.60;99.90;;;;;;5061799;28;20030;-84
2023/12/09 02:01:51;;;;;;;4.63;2.42;;;7.80;99.90;;;;;;5062405;28;20087;-84
2023/12/09 02:04:17;;;;;;;2.45;2.15;;;7.80;99.90;;;;;;5061751;28;20045;-84
2023/12/09 02:06:43;;;;;;;0.55;0.55;;;7.80;99.90;;;;;;5061878;28;20045;-84
2023/12/09 02:09:09;;;;;;;2.60;1.85;;;7.90;99.90;;;;;;5043825;28;20048;-84
2023/12/09 02:12:05;;;;;;;1.55;1.45;;;7.90;99.90;;;;;;5062344;28;20048;-84
2023/12/09 02:14:40;;;;;;;6.18;3.97;;;7.90;99.90;;;;;;5058047;28;20037;-84
2023/12/09 02:17:32;;;;;;;2.60;1.55;;;7.90;99.90;;;;;;5053500;28;20048;-84
2023/12/09 02:19:58;;;;;;;9.77;3.08;;;7.80;99.90;;;;;;5027463;28;20052;-83
2023/12/09 02:22:24;;;;;;;4.72;2.97;;;7.90;99.90;;;;;;5061965;28;20120;-84
2023/12/09 02:24:50;;;;;;;2.08;1.88;;;7.80;99.90;;;;;;5062018;28;20073;-84
2023/12/09 02:27:21;;;;;;;13.75;2.88;;;7.80;99.90;;;;;;5043632;28;20049;-84
2023/12/09 02:29:50;;;;;;;0.95;0.93;;;8.80;99.90;;;;;;5044025;28;20049;-84
2023/12/09 02:32:19;;;;;;;0.88;0.88;;;7.80;99.90;;;;;;5061311;28;20075;-85
2023/12/09 02:34:46;;;;;;;1.85;1.73;;;7.90;99.90;;;;;;5061325;28;20111;-84
2023/12/09 02:37:13;;;;;;;2.42;1.25;;;7.80;99.90;;;;;;5063527;28;20045;-85
2023/12/09 02:39:39;;;;;;;1.40;0.95;;;7.80;99.90;;;;;;5042927;28;20487;-85
2023/12/09 02:42:06;;;;;;;7.25;3.42;;;7.90;99.90;;;;;;5061005;28;20037;-84
2023/12/09 02:44:32;;;;;;;1.63;0.88;;;7.90;99.90;;;;;;5062160;28;20041;-84
2023/12/09 02:46:58;;;;;;;1.35;1.17;;;7.90;99.90;;;;;;5061866;28;20592;-84
2023/12/09 02:49:24;;;;;;;2.15;1.92;;;7.90;99.90;;;;;;5061998;28;20045;-83
2023/12/09 02:51:50;;;;;;;1.10;1.00;;;7.80;99.90;;;;;;5061060;28;20055;-84
2023/12/09 02:54:15;;;;;;;1.10;1.00;;;7.90;99.90;;;;;;5061445;28;20048;-83
2023/12/09 02:56:41;;;;;;;2.45;1.45;;;7.90;99.90;;;;;;5043980;28;20140;-84
2023/12/09 02:59:07;;;;;;;2.90;2.58;;;8.00;99.90;;;;;;5061109;28;20037;-84
2023/12/09 03:01:32;;;;;;;0.88;0.80;;;7.90;99.90;;;;;;5059976;28;20036;-84
2023/12/09 03:03:58;;;;;;;2.58;1.10;;;7.90;99.90;;;;;;5060543;28;20138;-84
2023/12/09 03:06:23;;;;;;;0.70;0.70;;;7.90;99.90;;;;;;5042791;28;20049;-83
2023/12/09 03:08:49;;;;;;;1.65;1.55;;;7.90;99.90;;;;;;5061146;28;20087;-84
2023/12/09 03:11:14;;;;;;;1.67;1.10;;;7.90;99.90;;;;;;5061381;28;20041;-85
2023/12/09 03:13:40;;;;;;;2.28;2.08;;;7.90;99.90;;;;;;5043612;28;20037;-85
2023/12/09 03:16:06;;;;;;;3.67;1.80;;;7.90;99.90;;;;;;5061260;28;20044;-84
2023/12/09 03:18:31;;;;;;;10.88;3.85;;;7.80;99.90;;;;;;5042962;28;20048;-85
2023/12/09 03:20:57;;;;;;;5.60;3.72;;;7.80;99.90;;;;;;5042496;28;20037;-84
2023/12/09 03:23:23;;;;;;;1.05;0.95;;;7.90;99.90;;;;;;5061361;28;20037;-84
2023/12/09 03:25:48;;;;;;;0.93;0.88;;;7.90;99.90;;;;;;5060633;28;20044;-85
2023/12/09 03:28:14;;;;;;;1.75;1.08;;;7.80;99.90;;;;;;5060844;28;20051;-84
2023/12/09 03:30:39;;;;;;;1.40;1.30;;;7.90;99.90;;;;;;5060768;28;20064;-84
2023/12/09 03:33:05;;;;;;;6.28;2.47;;;7.10;99.90;;;;;;5042680;28;20036;-84
2023/12/09 03:35:30;;;;;;;3.58;1.65;;;7.90;99.90;;;;;;5060789;28;20063;-84
2023/12/09 03:37:56;;;;;;;1.67;1.25;;;7.90;94.30;;;;;;5060278;28;20107;-84
2023/12/09 03:40:21;;;;;;;5.90;2.88;;;9.00;66.00;;;;;;5061280;28;20040;-84
2023/12/09 03:42:47;;;;;;;2.28;1.00;;;7.80;1.00;;;;;;5043035;28;20044;-85
2023/12/09 03:45:13;;;;;;;0.35;0.35;;;7.80;1.00;;;;;;5060506;28;20041;-84
2023/12/09 03:47:38;;;;;;;1.58;1.25;;;7.80;99.90;;;;;;5060089;28;20036;-84
2023/12/09 03:50:04;;;;;;;1.60;1.05;;;7.80;99.90;;;;;;5060029;28;20056;-84
2023/12/09 03:52:30;;;;;;;1.10;1.00;;;7.70;98.30;;;;;;5060216;28;20029;-84
2023/12/09 03:54:55;;;;;;;1.27;1.17;;;9.00;37.00;;;;;;5060365;28;20048;-84
2023/12/09 03:57:21;;;;;;;3.13;2.10;;;7.70;1.00;;;;;;5059784;28;20056;-84
2023/12/09 03:59:46;;;;;;;3.45;1.92;;;7.70;99.90;;;;;;5059685;28;20067;-86
2023/12/09 04:02:12;;;;;;;24.42;2.35;;;7.70;41.30;;;;;;5059485;28;20048;-84
2023/12/09 04:04:39;;;;;;;3.60;0.68;;;7.70;1.00;;;;;;5060175;28;20136;-84
2023/12/09 04:07:06;;;;;;;1.75;1.40;;;7.70;99.90;;;;;;5060898;28;20049;-84
2023/12/09 04:09:31;;;;;;;3.15;1.75;;;7.70;99.90;;;;;;5060481;28;20071;-85
2023/12/09 04:11:57;;;;;;;2.10;1.83;;;7.70;99.90;;;;;;5060051;28;20045;-84
2023/12/09 04:14:22;;;;;;;10.55;2.35;;;7.70;99.90;;;;;;5060696;28;20064;-85
2023/12/09 04:16:48;;;;;;;0.17;0.17;;;7.70;99.90;;;;;;5060413;28;20049;-84
2023/12/09 04:19:13;;;;;;;6.63;1.60;;;7.70;99.90;;;;;;5025713;28;20073;-84
2023/12/09 04:21:39;;;;;;;8.73;2.75;;;7.80;99.90;;;;;;5059648;28;20044;-84
2023/12/09 04:24:05;;;;;;;3.47;2.05;;;7.80;31.90;;;;;;5059765;28;20506;-84
2023/12/09 04:26:30;;;;;;;0.77;0.65;;;7.80;29.20;;;;;;5059675;28;20132;-84
2023/12/09 04:28:57;;;;;;;1.02;0.98;;;7.70;16.40;;;;;;5059404;28;20040;-84
2023/12/09 04:31:22;;;;;;;0.85;0.82;;;7.70;5.60;;;;;;5059331;28;20052;-85
2023/12/09 04:33:48;;;;;;;6.13;2.33;;;7.70;8.90;;;;;;5059106;28;20033;-84
2023/12/09 04:36:14;;;;;;;0.25;0.25;;;7.70;1.00;;;;;;5059116;28;20547;-84
2023/12/09 04:38:39;;;;;;;5.05;2.58;;;7.70;1.00;;;;;;5059662;28;20046;-84
2023/12/09 04:41:05;;;;;;;7.60;3.15;;;7.70;1.00;;;;;;5058920;28;20048;-84
2023/12/09 04:43:30;;;;;;;2.00;1.80;;;7.70;99.90;;;;;;5058758;28;20039;-84
2023/12/09 04:45:56;;;;;;;4.18;1.50;;;7.80;1.00;;;;;;5058808;28;20033;-85
2023/12/09 04:48:21;;;;;;;5.40;2.53;;;7.80;1.00;;;;;;5040360;28;20052;-84
2023/12/09 04:50:48;;;;;;;1.17;1.08;;;7.80;99.90;;;;;;5024381;28;20471;-85
2023/12/09 04:53:13;;;;;;;2.47;2.28;;;7.70;99.90;;;;;;5024080;28;20045;-85
2023/12/09 04:55:40;;;;;;;1.35;0.68;;;7.70;99.90;;;;;;5058322;28;20044;-84
2023/12/09 04:58:06;;;;;;;1.17;1.08;;;7.80;1.00;;;;;;5058521;28;20044;-85
2023/12/09 05:00:31;;;;;;;1.05;0.95;;;7.70;99.90;;;;;;5040385;28;20041;-84
2023/12/09 05:02:57;;;;;;;2.85;1.63;;;7.70;99.90;;;;;;5058696;28;20068;-84
2023/12/09 05:05:22;;;;;;;1.20;1.10;;;7.70;1.00;;;;;;5058530;28;20053;-85
2023/12/09 05:07:48;;;;;;;2.90;2.00;;;7.80;1.00;;;;;;5040668;28;20079;-84
2023/12/09 05:10:13;;;;;;;0.55;0.55;;;7.80;99.90;;;;;;5058982;28;20041;-85
2023/12/09 05:12:40;;;;;;;0.52;0.52;;;7.80;99.90;;;;;;5058847;28;20041;-85
2023/12/09 05:15:06;;;;;;;0.00;0.00;;;7.80;99.90;;;;;;5058695;28;20123;-85
2023/12/09 05:17:32;;;;;;;1.48;0.60;;;7.80;99.90;;;;;;5058910;28;20056;-84
2023/12/09 05:19:58;;;;;;;0.70;0.70;;;7.80;1.00;;;;;;5058616;28;20063;-84
2023/12/09 05:22:24;;;;;;;1.90;1.30;;;8.70;99.90;;;;;;5058563;28;20036;-84
2023/12/09 05:24:51;;;;;;;0.90;0.82;;;7.80;99.90;;;;;;5043617;28;20044;-84
2023/12/09 05:27:16;;;;;;;2.83;2.55;;;7.70;99.90;;;;;;5044395;28;20091;-85
2023/12/09 05:29:43;;;;;;;1.98;1.38;;;7.70;99.90;;;;;;5044294;28;20445;-85
2023/12/09 05:32:09;;;;;;;0.60;0.60;;;7.70;1.00;;;;;;5062214;28;20045;-84
2023/12/09 05:34:34;;;;;;;0.38;0.35;;;7.80;8.60;;;;;;5062650;28;20048;-85
2023/12/09 05:37:00;;;;;;;0.25;0.25;;;7.80;1.00;;;;;;5062218;28;20045;-85
2023/12/09 05:39:25;;;;;;;0.75;0.52;;;7.80;99.90;;;;;;5062200;28;20052;-85
2023/12/09 05:41:51;;;;;;;0.75;0.75;;;7.80;1.00;;;;;;5062317;28;20037;-84
2023/12/09 05:44:17;;;;;;;30.48;1.58;;;7.80;99.90;;;;;;5062574;28;20033;-84
2023/12/09 05:46:43;;;;;;;1.52;1.42;;;7.80;99.90;;;;;;5044392;28;20063;-84
2023/12/09 05:49:09;;;;;;;4.90;2.08;;;7.70;99.90;;;;;;5061692;28;20131;-85
2023/12/09 05:51:34;;;;;;;0.73;0.73;;;7.80;99.90;;;;;;5061123;28;20037;-84
2023/12/09 05:54:01;;;;;;;13.88;2.60;;;7.70;1.00;;;;;;5061731;28;20095;-84
2023/12/09 05:56:27;;;;;;;0.30;0.30;;;7.70;99.90;;;;;;5061290;28;20033;-84
2023/12/09 05:58:52;;;;;;;1.17;1.13;;;7.70;1.00;;;;;;5061514;28;20059;-85
2023/12/09 06:01:18;;;;;;;0.10;0.10;;;7.70;1.00;;;;;;5061516;28;20048;-85
2023/12/09 06:03:44;;;;;;;0.82;0.65;;;7.70;99.90;;;;;;5055285;28;20033;-85
2023/12/09 06:06:09;;;;;;;2.05;1.80;;;7.70;1.00;;;;;;5037350;28;20157;-85
2023/12/09 06:08:35;;;;;;;4.25;2.00;;;7.70;1.00;;;;;;5055229;28;20036;-85
2023/12/09 06:11:01;;;;;;;0.75;0.65;;;7.60;1.00;;;;;;5037156;28;20049;-85
2023/12/09 06:13:27;;;;;;;2.70;1.38;;;7.70;1.00;;;;;;5037012;28;20053;-85
2023/12/09 06:15:52;;;;;;;1.65;0.95;;;7.70;1.00;;;;;;5055286;28;20483;-85
2023/12/09 06:18:18;;;;;;;0.43;0.15;;;7.60;1.00;;;;;;5055222;28;20119;-85
2023/12/09 06:20:44;;;;;;;2.92;1.58;;;7.70;99.90;;;;;;5054881;28;20048;-85
2023/12/09 06:23:09;;;;;;;3.42;2.00;;;7.70;1.00;;;;;;5055038;28;20083;-85
2023/12/09 06:25:35;;;;;;;0.63;0.60;;;7.70;1.00;;;;;;5054820;28;20087;-85
2023/12/09 06:28:00;;;;;;;1.40;1.02;;;7.70;1.00;;;;;;5054774;28;20052;-85
2023/12/09 06:30:26;;;;;;;1.48;1.38;;;7.60;99.90;;;;;;5054888;28;20067;-85
2023/12/09 06:32:51;;;;;;;1.05;0.98;;;7.70;1.00;;;;;;5036648;28;20041;-85
2023/12/09 06:35:17;;;;;;;4.65;1.05;;;7.80;1.00;;;;;;5036308;28;20487;-85
2023/12/09 06:37:42;;;;;;;1.42;1.33;;;7.60;99.90;;;;;;5055314;28;20391;-85
2023/12/09 06:40:09;;;;;;;5.65;3.60;;;7.70;1.00;;;;;;5036750;28;20059;-85
2023/12/09 06:42:36;;;;;;;1.38;1.27;;;7.70;1.00;;;;;;5054781;28;20037;-85
2023/12/09 06:45:02;;;;;;;0.40;0.40;;;7.70;99.90;;;;;;5054406;28;20045;-85
2023/12/09 06:47:28;;;;;;;2.25;1.33;;;7.70;99.90;;;;;;5054500;28;20509;-85
2023/12/09 06:49:54;;;;;;;1.17;1.05;;;7.70;99.90;;;;;;5054464;28;20041;-85
2023/12/09 06:52:19;;;;;;;3.28;1.83;;;7.70;99.90;;;;;;5054684;28;20502;-85
2023/12/09 06:54:45;;;;;;;1.23;1.13;;;7.60;99.90;;;;;;5036756;28;20432;-85
2023/12/09 06:57:10;;;;;;;2.13;1.95;;;7.60;99.90;;;;;;5054300;28;20045;-85
2023/12/09 06:59:36;;;;;;;1.00;0.88;;;7.50;99.90;;;;;;5054860;28;20064;-85
2023/12/09 07:02:02;;;;;;;1.17;1.00;;;7.50;99.90;;;;;;5054176;28;20052;-85
2023/12/09 07:04:27;;;;;;;0.73;0.73;;;7.50;99.90;;;;;;5053813;28;20067;-85
2023/12/09 07:06:53;;;;;;;1.08;0.40;;;7.50;99.90;;;;;;5054288;28;20041;-85
2023/12/09 07:09:18;;;;;;;1.05;0.95;;;7.50;99.90;;;;;;5054301;28;20074;-85
2023/12/09 07:11:44;;;;;;;0.73;0.45;;;7.40;99.90;;;;;;5053738;28;20037;-85
2023/12/09 07:14:09;;;;;;;1.13;1.02;;;7.50;99.90;;;;;;5053678;28;20041;-85
2023/12/09 07:16:38;;;;;;;1.65;1.23;;;7.50;99.90;;;;;;5035706;28;20045;-85
2023/12/09 07:19:04;;;;;;;0.45;0.35;;;7.50;99.90;;;;;;5053947;28;20502;-85
2023/12/09 07:21:30;;;;;;;1.08;0.63;;;7.40;91.50;;;;;;5054360;28;20049;-85
2023/12/09 07:23:55;;;;;;;0.73;0.73;;;7.30;99.90;;;;;;5054227;28;20045;-85
2023/12/09 07:26:22;;;;;;;0.10;0.10;;;7.40;99.90;;;;;;5054989;28;20052;-85
2023/12/09 07:28:47;;;;;;;3.53;0.95;;;7.40;45.30;;;;;;5054826;28;20063;-85
2023/12/09 07:31:14;;;;;;;1.13;0.90;;;7.30;99.90;;;;;;5054722;28;20045;-85
2023/12/09 07:33:39;;;;;;;0.57;0.40;;;7.40;99.90;;;;;;5036947;28;20380;-85
2023/12/09 07:36:05;;;;;;;0.40;0.22;;;7.30;99.90;;;;;;5054791;28;20094;-85
2023/12/09 07:38:31;;;;;;;0.30;0.30;;;7.30;99.90;;;;;;5054472;28;20559;-85
2023/12/09 07:40:57;;;;;;;5.88;1.88;;;7.40;99.90;;;;;;5054350;28;20080;-85
2023/12/09 07:43:22;;;;;;;3.35;1.95;;;7.30;99.90;;;;;;5054831;28;20060;-85
2023/12/09 07:45:48;;;;;;;4.78;2.88;;;7.30;99.90;;;;;;5054282;28;20541;-85
2023/12/09 07:48:14;;;;;;;2.00;1.83;;;7.30;99.90;;;;;;5035868;28;20091;-85
2023/12/09 07:50:40;;;;;;;2.90;2.42;;;7.30;99.90;;;;;;5054485;28;20093;-85
2023/12/09 07:53:06;;;;;;;7.78;2.47;;;7.30;99.90;;;;;;5036293;28;20050;-85
2023/12/09 07:55:31;;;;;;;2.13;1.63;;;7.30;99.90;;;;;;5054534;28;20048;-85
2023/12/09 07:57:57;;;;;;;0.55;0.55;;;7.30;99.90;;;;;;5054439;28;20041;-84
2023/12/09 08:00:26;;;;;;;0.30;0.30;;;7.40;29.40;;;;;;5036518;28;20124;-85
2023/12/09 08:02:54;;;;;;;12.20;4.28;;;7.40;99.90;;;;;;5054097;28;20406;-85
2023/12/09 08:05:21;;;;;;;0.30;0.30;;;7.40;99.90;;;;;;5053498;28;20528;-85
2023/12/09 08:07:46;;;;;;;4.70;1.40;;;7.40;99.90;;;;;;5053546;28;20138;-84
2023/12/09 08:10:12;;;;;;;1.33;0.77;;;7.40;99.90;;;;;;5052858;28;20068;-85
2023/12/09 08:12:38;;;;;;;0.00;0.00;;;8.00;99.90;;;;;;5052771;28;20068;-85
2023/12/09 08:15:04;;;;;;;0.10;0.10;;;7.40;1.00;;;;;;5052591;28;20384;-85
2023/12/09 08:17:30;;;;;;;9.43;1.15;;;7.40;99.90;;;;;;5052959;28;20128;-85
2023/12/09 08:19:55;;;;;;;7.97;2.15;;;7.40;99.90;;;;;;5052797;28;20041;-85
2023/12/09 08:22:21;;;;;;;8.88;2.47;;;7.40;99.90;;;;;;5052785;28;20049;-85
2023/12/09 08:24:47;;;;;;;1.25;0.80;;;7.40;99.90;;;;;;5052355;28;20048;-85
2023/12/09 08:27:12;;;;;;;0.30;0.30;;;7.40;99.90;;;;;;5034811;28;20441;-85
2023/12/09 08:29:38;;;;;;;1.67;1.50;;;7.50;76.10;;;;;;5052488;28;20040;-85
2023/12/09 08:32:04;;;;;;;1.42;1.00;;;7.50;1.00;;;;;;5034575;28;20099;-85
2023/12/09 08:34:30;;;;;;;2.42;1.10;;;7.50;87.00;;;;;;5034489;28;20076;-85
2023/12/09 08:36:55;;;;;;;0.52;0.52;;;7.50;99.90;;;;;;5052291;28;20041;-85
2023/12/09 08:39:23;;;;;;;0.85;0.85;;;7.50;1.00;;;;;;5052751;28;20048;-85
2023/12/09 08:41:49;;;;;;;0.20;0.20;;;7.40;1.00;;;;;;5052575;28;20044;-85
2023/12/09 08:44:14;;;;;;;0.30;0.30;;;7.40;69.10;;;;;;5052296;28;20510;-85
2023/12/09 08:46:40;;;;;;;1.65;1.55;;;7.40;1.00;;;;;;5052376;28;20044;-85
2023/12/09 08:49:06;;;;;;;5.45;1.52;;;7.50;1.00;;;;;;5052115;28;20483;-85
2023/12/09 08:51:31;;;;;;;0.17;0.17;;;7.40;1.00;;;;;;5052475;28;20120;-85
2023/12/09 08:53:57;;;;;;;1.73;1.33;;;7.40;1.00;;;;;;5052469;28;20398;-85
2023/12/09 08:56:23;;;;;;;0.00;0.00;;;7.50;1.00;;;;;;5052476;28;20044;-85
2023/12/09 08:58:48;;;;;;;0.00;0.00;;;7.50;99.90;;;;;;5054597;28;20035;-85
2023/12/09 09:01:14;;;;;;;3.28;2.20;;;7.40;99.90;;;;;;5056490;28;20052;-85
2023/12/09 09:03:39;;;;;;;0.47;0.43;;;7.40;99.90;;;;;;5056346;28;20043;-85
2023/12/09 09:06:05;;;;;;;0.38;0.38;;;7.50;95.30;;;;;;5056875;28;20103;-85
2023/12/09 09:08:31;;;;;;;3.58;2.30;;;7.50;99.90;;;;;;5056362;28;20510;-85
2023/12/09 09:10:57;;;;;;;2.28;0.45;;;7.40;99.90;;;;;;5056410;28;20518;-85
2023/12/09 09:13:22;;;;;;;0.22;0.17;;;7.40;1.00;;;;;;5038063;28;20045;-85
2023/12/09 09:15:48;;;;;;;0.00;0.00;;;7.50;99.90;;;;;;5056244;28;20048;-85
2023/12/09 09:18:13;;;;;;;0.15;0.15;;;7.50;1.00;;;;;;5056038;28;20045;-85
2023/12/09 09:20:42;;;;;;;1.23;1.00;;;7.50;1.00;;;;;;5055525;28;20394;-85
2023/12/09 09:23:09;;;;;;;0.40;0.30;;;7.60;99.90;;;;;;5056085;28;20041;-85
2023/12/09 09:25:34;;;;;;;4.68;3.00;;;7.60;82.90;;;;;;5055524;28;20033;-85
2023/12/09 09:28:02;;;;;;;0.28;0.28;;;7.50;99.90;;;;;;5021657;28;20191;-85
2023/12/09 09:30:28;;;;;;;0.05;0.03;;;7.50;99.90;;;;;;5055850;28;20541;-85
2023/12/09 09:32:54;;;;;;;0.00;0.00;;;7.50;99.90;;;;;;5056104;28;20041;-85
2023/12/09 09:35:20;;;;;;;0.00;0.00;;;7.50;99.90;;;;;;5055677;28;20531;-85
2023/12/09 09:37:46;;;;;;;0.52;0.52;;;7.50;99.90;;;;;;5055703;28;20045;-85
2023/12/09 09:40:12;;;;;;;0.73;0.73;;;7.50;99.90;;;;;;5055882;28;20092;-85
2023/12/09 09:42:52;;;;;;;7.50;1.15;;;7.60;99.90;;;;;;5055886;28;20055;-85
2023/12/09 09:45:24;;;;;;;0.00;0.00;;;7.70;99.90;;;;;;5047611;28;20111;-85
2023/12/09 09:47:53;;;;;;;1.65;0.73;;;7.80;99.90;;;;;;5055264;28;20116;-85
2023/12/09 09:50:24;;;;;;;2.55;1.20;;;7.80;1.00;;;;;;5055254;28;20037;-85
2023/12/09 09:52:50;;;;;;;0.90;0.77;;;7.90;99.90;;;;;;5055532;28;20048;-85
2023/12/09 09:55:18;;;;;;;0.28;0.28;;;7.90;99.90;;;;;;5037385;28;20048;-85
2023/12/09 09:57:44;;;;;;;1.40;0.70;;;8.00;99.90;;;;;;5037910;28;20098;-85
2023/12/09 10:00:14;;;;;;;12.75;1.88;;;8.00;19.10;;;;;;5055359;28;20106;-85
2023/12/09 10:02:44;;;;;;;2.08;0.98;;;8.00;99.90;;;;;;5055286;28;20116;-85
2023/12/09 10:05:12;;;;;;;1.95;0.98;;;8.00;99.90;;;;;;5037087;28;20057;-85
2023/12/09 10:07:39;;;;;;;0.80;0.75;;;8.00;99.90;;;;;;5047348;28;20041;-85
2023/12/09 10:10:05;;;;;;;0.05;0.05;;;8.00;99.90;;;;;;5054882;28;20048;-85
2023/12/09 10:12:31;;;;;;;0.05;0.05;;;8.00;99.90;;;;;;5055780;28;20040;-85
2023/12/09 10:14:57;;;;;;;0.00;0.00;;;8.00;1.00;;;;;;5056728;28;20041;-85
2023/12/09 10:17:23;;;;;;;0.10;0.10;;;7.90;44.50;;;;;;5056650;28;20553;-85
2023/12/09 10:19:48;;;;;;;0.20;0.15;;;8.00;99.90;;;;;;5056295;28;20082;-85
2023/12/09 10:22:14;;;;;;;0.10;0.10;;;8.00;99.90;;;;;;5056094;28;20124;-85
2023/12/09 10:24:47;;;;;;;0.55;0.28;;;8.00;58.70;;;;;;5055086;28;20056;-85
2023/12/09 10:27:13;;;;;;;0.00;0.00;;;8.00;99.90;;;;;;5055142;28;20037;-85
2023/12/09 10:29:38;;;;;;;2.47;1.55;;;8.10;99.90;;;;;;5036685;28;20090;-85
2023/12/09 10:32:05;;;;;;;0.00;0.00;;;8.10;99.90;;;;;;5055038;28;20068;-85
2023/12/09 10:34:31;;;;;;;0.00;0.00;;;8.10;99.90;;;;;;5036681;28;20047;-85
2023/12/09 10:36:56;;;;;;;0.05;0.03;;;8.10;99.90;;;;;;5036799;28;20037;-85
2023/12/09 10:39:22;;;;;;;2.78;2.17;;;8.20;99.90;;;;;;5054793;28;20076;-85
2023/12/09 10:41:47;;;;;;;0.00;0.00;;;8.20;99.90;;;;;;5054867;28;20040;-85
2023/12/09 10:44:15;;;;;;;0.82;0.52;;;8.30;99.90;;;;;;5054310;28;20037;-85
2023/12/09 10:46:40;;;;;;;0.43;0.43;;;8.40;1.00;;;;;;5054550;28;20479;-85
2023/12/09 10:49:07;;;;;;;0.00;0.00;;;8.30;98.10;;;;;;5054501;28;20037;-85
2023/12/09 10:51:32;;;;;;;0.10;0.10;;;8.30;99.90;;;;;;5054707;28;20047;-85
2023/12/09 10:53:58;;;;;;;0.00;0.00;;;8.30;99.90;;;;;;5036824;28;20071;-85
2023/12/09 10:56:23;;;;;;;2.97;2.33;;;8.30;43.80;;;;;;5036382;28;20052;-85
2023/12/09 10:58:51;;;;;;;0.00;0.00;;;8.40;99.90;;;;;;5054555;28;20059;-85
2023/12/09 11:01:18;;;;;;;2.33;0.30;;;8.50;99.90;;;;;;5036406;28;20092;-85
2023/12/09 11:03:44;;;;;;;6.03;2.10;;;8.50;1.00;;;;;;5054024;28;20045;-85
2023/12/09 11:06:11;;;;;;;0.13;0.10;;;8.50;99.90;;;;;;5054376;28;20128;-85
2023/12/09 11:08:38;;;;;;;17.10;0.52;;;8.60;99.90;;;;;;5053703;28;20072;-85
2023/12/09 11:11:05;;;;;;;0.50;0.50;;;8.50;1.00;;;;;;5054003;28;20045;-85
2023/12/09 11:13:34;;;;;;;0.55;0.55;;;8.50;99.90;;;;;;5053414;28;20076;-85
2023/12/09 11:16:12;;;;;;;0.63;0.60;;;8.60;1.00;;;;;;5054153;28;20611;-85
2023/12/09 11:18:49;;;;;;;0.20;0.17;;;8.50;1.00;;;;;;5050128;28;20132;-85
2023/12/09 11:21:16;;;;;;;0.00;0.00;;;8.50;1.00;;;;;;5051172;28;20055;-85
2023/12/09 11:23:52;;;;;;;0.15;0.15;;;8.50;99.90;;;;;;5051516;28;20415;-85
2023/12/09 11:26:19;;;;;;;0.10;0.10;;;8.50;99.90;;;;;;5053322;28;20127;-85
2023/12/09 11:29:04;;;;;;;0.00;0.00;;;8.50;1.00;;;;;;5052038;28;20040;-85
2023/12/09 11:31:38;;;;;;;0.00;0.00;;;8.60;99.90;;;;;;5041978;28;20455;-85
2023/12/09 11:34:05;;;;;;;0.40;0.40;;;8.60;99.90;;;;;;5042127;28;20045;-85
2023/12/09 11:36:35;;;;;;;0.52;0.52;;;8.50;99.90;;;;;;5036336;28;20037;-85
2023/12/09 11:39:04;;;;;;;0.00;0.00;;;8.40;99.90;;;;;;5051524;28;20041;-85
2023/12/09 11:41:30;;;;;;;0.00;0.00;;;8.50;99.90;;;;;;5043349;28;20088;-85
2023/12/09 11:43:57;;;;;;;0.10;0.10;;;8.50;99.90;;;;;;5046322;28;20502;-85
2023/12/09 11:46:23;;;;;;;0.17;0.13;;;8.50;1.00;;;;;;5038362;28;20369;-85
2023/12/09 11:48:51;;;;;;;0.47;0.38;;;8.60;1.00;;;;;;5033956;28;20067;-85
2023/12/09 11:51:18;;;;;;;0.00;0.00;;;8.70;99.90;;;;;;5040258;28;20103;-85
2023/12/09 11:53:57;;;;;;;0.00;0.00;;;8.70;96.80;;;;;;5041742;28;20052;-85
2023/12/09 11:56:24;;;;;;;0.45;0.45;;;8.70;99.90;;;;;;5041202;28;20033;-85
2023/12/09 11:58:50;;;;;;;0.08;0.08;;;8.70;96.00;;;;;;5043662;28;20056;-85
2023/12/09 12:01:16;;;;;;;0.00;0.00;;;8.70;99.90;;;;;;5031303;28;20048;-85
2023/12/09 12:03:42;;;;;;;0.60;0.38;;;8.70;99.90;;;;;;5045995;28;20037;-85
2023/12/09 12:06:09;;;;;;;0.10;0.10;;;8.80;99.90;;;;;;5046954;28;20068;-85
2023/12/09 12:08:34;;;;;;;3.95;1.15;;;8.70;99.90;;;;;;5044535;28;20119;-85
2023/12/09 12:11:00;;;;;;;0.57;0.57;;;8.70;99.90;;;;;;5048070;28;20047;-85
2023/12/09 12:13:26;;;;;;;0.10;0.10;;;8.80;99.90;;;;;;5047601;28;20110;-85
2023/12/09 12:15:53;;;;;;;1.00;0.40;;;8.70;99.90;;;;;;5048120;28;20384;-84
2023/12/09 12:18:19;;;;;;;0.00;0.00;;;8.60;99.90;;;;;;5051624;28;20092;-85
2023/12/09 12:20:44;;;;;;;1.67;1.30;;;8.60;99.90;;;;;;5049393;28;20041;-85
2023/12/09 12:23:11;;;;;;;0.55;0.35;;;8.60;99.90;;;;;;5051306;28;20398;-85
2023/12/09 12:25:37;;;;;;;0.63;0.28;;;8.50;99.90;;;;;;5051229;28;20045;-85
2023/12/09 12:28:04;;;;;;;1.13;0.65;;;8.70;99.90;;;;;;5048429;28;20049;-85
2023/12/09 12:30:30;;;;;;;0.38;0.20;;;8.50;1.00;;;;;;5040404;28;20509;-84
2023/12/09 12:32:56;;;;;;;0.00;0.00;;;8.50;99.90;;;;;;5034125;28;20048;-84
2023/12/09 12:35:25;;;;;;;8.57;0.55;;;8.50;99.90;;;;;;5029686;28;20041;-85
2023/12/09 12:37:51;;;;;;;0.98;0.55;;;8.60;99.90;;;;;;5033622;28;20059;-85
2023/12/09 12:40:18;;;;;;;4.78;0.93;;;8.60;99.90;;;;;;5022712;28;20103;-84
2023/12/09 12:42:44;;;;;;;0.00;0.00;;;8.50;99.90;;;;;;5045878;28;20116;-85
2023/12/09 12:45:17;;;;;;;0.40;0.40;;;8.60;99.90;;;;;;5037075;28;20525;-85
2023/12/09 12:47:44;;;;;;;0.10;0.10;;;8.50;99.90;;;;;;5038986;28;20034;-85
2023/12/09 12:50:10;;;;;;;12.52;1.35;;;8.50;99.90;;;;;;5039620;28;20036;-85
2023/12/09 12:52:35;;;;;;;0.00;0.00;;;8.50;1.00;;;;;;5039504;28;20041;-85